KFFO/FFO METAR and TAF weather

Enter ICAO airport designator
Station Type Date Time Source
KFFO METAR 2021/04/17 01:56 UTC NOAA

KFFO 170156Z AUTO 00000KT 10SM CLR 09/02 A2990 RMK AO2 SLP130 T00930024


Station Type Date Time Source
KFFO Decoded METAR 2021/04/17 01:56 UTC NOAA

Dayton / Wright-Patterson Air Force Base, OH, United States (KFFO) 39-50N 084-03W 251M
Apr 16, 2021 - 09:56 PM EDT / 2021.04.17 0156 UTC
Wind: Calm:0
Visibility: 10 mile(s):0
Sky conditions: clear
Temperature: 48.7 F (9.3 C)
Dew Point: 36.3 F (2.4 C)
Relative Humidity: 61%
Pressure (altimeter): 29.9 in. Hg (1012 hPa)
ob: KFFO 170156Z AUTO 00000KT 10SM CLR 09/02 A2990 RMK AO2 SLP130 T00930024
cycle: 2

Station Type Date Time Source
KFFO TAF 2021/04/16 19:13 UTC NOAA

TAF KFFO 161905Z 1619/1801 30012KT 9999 BKN040 QNH2988INS
BECMG 1622/1623 VRB06KT 9999 SCT035 BKN250 QNH2989INS
BECMG 1717/1718 VRB06KT 9000 -SHRA BKN030 BKN110 OVC250 QNH2991INS
BECMG 1723/1724 31006KT 9999 VCSH BKN025 QNH2992INS TX14/1719Z TN03/1710Z

Example: see airport list